createdAt,value
2016-03-07T00:00:29.701Z,0
2016-03-07T00:01:29.750Z,0
2016-03-07T00:02:29.706Z,0
2016-03-07T00:03:29.710Z,0
2016-03-07T00:04:29.680Z,0
2016-03-07T00:05:29.683Z,0
2016-03-07T00:06:29.685Z,0
2016-03-07T00:07:29.673Z,0
2016-03-07T00:08:29.707Z,0
2016-03-07T00:09:29.678Z,0
2016-03-07T00:10:29.665Z,0
2016-03-07T00:11:29.668Z,0
2016-03-07T00:12:29.687Z,0
2016-03-07T00:13:29.643Z,0
2016-03-07T00:14:29.645Z,0
2016-03-07T00:15:29.678Z,0
2016-03-07T00:16:29.651Z,0
2016-03-07T00:17:29.653Z,0
2016-03-07T00:18:29.655Z,0
2016-03-07T00:19:29.628Z,0
2016-03-07T00:20:29.630Z,0
2016-03-07T00:21:29.633Z,0
2016-03-07T00:22:29.620Z,0
2016-03-07T00:23:29.466Z,0
2016-03-07T00:24:29.608Z,0
2016-03-07T00:25:29.597Z,0
2016-03-07T00:26:29.599Z,0
2016-03-07T00:27:29.585Z,0
2016-03-07T00:28:29.588Z,0
2016-03-07T00:29:30.325Z,0
2016-03-07T00:30:29.594Z,0
2016-03-07T00:31:29.597Z,0
2016-03-07T00:32:29.583Z,0
2016-03-07T00:33:29.586Z,0
2016-03-07T00:34:29.558Z,0
2016-03-07T00:35:29.577Z,0
2016-03-07T00:36:29.594Z,0
2016-03-07T00:37:29.581Z,0
2016-03-07T00:38:29.569Z,0
2016-03-07T00:39:29.540Z,0
2016-03-07T00:40:29.543Z,0
2016-03-07T00:41:29.577Z,0
2016-03-07T00:42:29.532Z,0
2016-03-07T00:43:29.613Z,0
2016-03-07T00:44:29.554Z,0
2016-03-07T00:45:29.540Z,0
2016-03-07T00:46:29.527Z,0
2016-03-07T00:47:29.546Z,0
2016-03-07T00:48:29.501Z,0
2016-03-07T00:49:29.551Z,0
2016-03-07T00:50:29.507Z,0
2016-03-07T00:51:29.509Z,0
2016-03-07T00:52:29.497Z,0
2016-03-07T00:53:29.484Z,0
2016-03-07T00:54:29.517Z,0
2016-03-07T00:55:29.489Z,0
2016-03-07T00:56:29.492Z,0
2016-03-07T00:57:29.510Z,0
2016-03-07T00:58:29.544Z,0
2016-03-07T00:59:29.469Z,0
2016-03-07T01:00:29.456Z,0
2016-03-07T01:01:29.458Z,0
2016-03-07T01:02:29.461Z,0
2016-03-07T01:03:29.464Z,0
2016-03-07T01:04:29.482Z,0
2016-03-07T01:05:29.454Z,0
2016-03-07T01:06:29.457Z,0
2016-03-07T01:07:29.474Z,0
2016-03-07T01:08:29.431Z,0
2016-03-07T01:09:29.449Z,0
2016-03-07T01:10:29.435Z,0
2016-03-07T01:11:29.423Z,0
2016-03-07T01:12:29.457Z,0
2016-03-07T01:13:29.490Z,0
2016-03-07T01:14:29.415Z,0
2016-03-07T01:15:29.434Z,0
2016-03-07T01:16:29.405Z,0
2016-03-07T01:17:29.424Z,0
2016-03-07T01:18:29.426Z,0
2016-03-07T01:19:29.382Z,0
2016-03-07T01:20:29.416Z,0
2016-03-07T01:21:29.387Z,0
2016-03-07T01:22:29.406Z,0
2016-03-07T01:23:29.408Z,0
2016-03-07T01:24:29.380Z,0
2016-03-07T01:25:29.398Z,0
2016-03-07T01:26:29.370Z,0
2016-03-07T01:27:29.373Z,0
2016-03-07T01:28:29.375Z,0
2016-03-07T01:29:29.361Z,0
2016-03-07T01:30:29.381Z,0
2016-03-07T01:31:29.352Z,0
2016-03-07T01:32:29.354Z,0
2016-03-07T01:33:29.341Z,0
2016-03-07T01:34:29.344Z,0
2016-03-07T01:35:29.362Z,0
2016-03-07T01:36:29.335Z,0
2016-03-07T01:37:29.321Z,0
2016-03-07T01:38:29.354Z,0
2016-03-07T01:39:29.311Z,0
2016-03-07T01:40:29.329Z,0
2016-03-07T01:41:29.332Z,0
2016-03-07T01:42:29.287Z,0
2016-03-07T01:43:29.353Z,0
2016-03-07T01:44:29.309Z,0
2016-03-07T01:45:29.280Z,0
2016-03-07T01:46:29.282Z,0
2016-03-07T01:47:29.332Z,0
2016-03-07T01:48:29.288Z,0
2016-03-07T01:49:29.290Z,0
2016-03-07T01:50:29.278Z,0
2016-03-07T01:51:29.280Z,0
2016-03-07T01:52:29.315Z,0
2016-03-07T01:53:29.255Z,0
2016-03-07T01:54:29.289Z,0
2016-03-07T01:55:29.339Z,0
2016-03-07T01:56:29.247Z,0
2016-03-07T01:57:29.266Z,0
2016-03-07T01:58:29.253Z,0
2016-03-07T01:59:29.224Z,0
2016-03-07T02:00:29.241Z,0
2016-03-07T02:01:29.261Z,0
2016-03-07T02:02:29.232Z,0
2016-03-07T02:03:29.219Z,0
2016-03-07T02:04:29.253Z,0
2016-03-07T02:05:29.068Z,0
2016-03-07T02:06:29.258Z,0
2016-03-07T02:07:29.246Z,0
2016-03-07T02:08:29.201Z,0
2016-03-07T02:09:29.204Z,0
2016-03-07T02:10:29.222Z,0
2016-03-07T02:11:29.194Z,0
2016-03-07T02:12:29.212Z,0
2016-03-07T02:13:29.199Z,0
2016-03-07T02:14:29.187Z,0
2016-03-07T02:15:29.189Z,0
2016-03-07T02:16:29.176Z,0
2016-03-07T02:17:29.163Z,0
2016-03-07T02:18:29.212Z,0
2016-03-07T02:19:29.168Z,0
2016-03-07T02:20:29.156Z,0
2016-03-07T02:21:29.190Z,0
2016-03-07T02:22:29.177Z,0
2016-03-07T02:23:29.132Z,0
2016-03-07T02:24:29.167Z,0
2016-03-07T02:25:29.137Z,0
2016-03-07T02:26:29.140Z,0
2016-03-07T02:27:29.159Z,0
2016-03-07T02:28:29.130Z,0
2016-03-07T02:29:29.149Z,0
2016-03-07T02:30:29.136Z,0
2016-03-07T02:31:29.154Z,0
2016-03-07T02:32:29.110Z,0
2016-03-07T02:33:29.128Z,0
2016-03-07T02:34:29.099Z,0
2016-03-07T02:35:29.086Z,0
2016-03-07T02:36:29.136Z,0
2016-03-07T02:37:29.092Z,0
2016-03-07T02:38:29.095Z,0
2016-03-07T02:39:29.082Z,0
2016-03-07T02:40:29.085Z,0
2016-03-07T02:41:29.118Z,0
2016-03-07T02:42:29.074Z,0
2016-03-07T02:43:29.077Z,0
2016-03-07T02:44:29.063Z,0
2016-03-07T02:45:29.067Z,0
2016-03-07T02:46:29.132Z,0
2016-03-07T02:47:29.041Z,0
2016-03-07T02:48:29.043Z,0
2016-03-07T02:49:29.046Z,0
2016-03-07T02:50:29.034Z,0
2016-03-07T02:51:29.051Z,0
2016-03-07T02:52:29.039Z,0
2016-03-07T02:53:29.026Z,0
2016-03-07T02:54:29.029Z,0
2016-03-07T02:55:29.015Z,0
2016-03-07T02:56:29.034Z,0
2016-03-07T02:57:29.005Z,0
2016-03-07T02:58:28.992Z,0
2016-03-07T02:59:29.011Z,0
2016-03-07T03:00:28.981Z,0
2016-03-07T03:01:29.001Z,0
2016-03-07T03:02:29.003Z,0
2016-03-07T03:03:29.006Z,0
2016-03-07T03:04:28.992Z,0
2016-03-07T03:05:28.980Z,0
2016-03-07T03:06:28.983Z,0
2016-03-07T03:07:28.985Z,0
2016-03-07T03:08:29.019Z,0
2016-03-07T03:09:28.866Z,0
2016-03-07T03:10:29.072Z,0
2016-03-07T03:11:28.949Z,0
2016-03-07T03:12:28.952Z,0
2016-03-07T03:13:28.971Z,0
2016-03-07T03:14:28.941Z,0
2016-03-07T03:15:28.944Z,0
2016-03-07T03:16:28.931Z,0
2016-03-07T03:17:28.982Z,0
2016-03-07T03:18:28.937Z,0
2016-03-07T03:19:28.987Z,0
2016-03-07T03:20:29.004Z,0
2016-03-07T03:21:28.929Z,0
2016-03-07T03:22:28.901Z,0
2016-03-07T03:23:28.918Z,0
2016-03-07T03:24:28.906Z,0
2016-03-07T03:25:28.893Z,0
2016-03-07T03:26:28.756Z,0
2016-03-07T03:27:28.898Z,0
2016-03-07T03:28:28.886Z,0
2016-03-07T03:29:28.857Z,0
2016-03-07T03:30:28.875Z,0
2016-03-07T03:31:28.847Z,0
2016-03-07T03:32:28.880Z,0
2016-03-07T03:33:28.867Z,0
2016-03-07T03:34:28.870Z,0
2016-03-07T03:35:28.967Z,0
2016-03-07T03:36:28.829Z,0
2016-03-07T03:37:28.816Z,0
2016-03-07T03:38:28.866Z,0
2016-03-07T03:39:28.821Z,0
2016-03-07T03:40:28.824Z,0
2016-03-07T03:41:28.811Z,0
2016-03-07T03:42:28.799Z,0
2016-03-07T03:43:28.832Z,0
2016-03-07T03:44:28.804Z,0
2016-03-07T03:45:28.807Z,0
2016-03-07T03:46:28.777Z,0
2016-03-07T03:47:28.796Z,0
2016-03-07T03:48:28.798Z,0
2016-03-07T03:49:28.770Z,0
2016-03-07T03:50:28.757Z,0
2016-03-07T03:51:28.776Z,0
2016-03-07T03:52:28.778Z,0
2016-03-07T03:53:28.749Z,0
2016-03-07T03:54:28.751Z,0
2016-03-07T03:55:28.739Z,0
2016-03-07T03:56:28.617Z,0
2016-03-07T03:57:28.729Z,0
2016-03-07T03:58:28.731Z,0
2016-03-07T03:59:28.751Z,0
2016-03-07T04:00:28.722Z,0
2016-03-07T04:01:28.725Z,0
2016-03-07T04:02:28.727Z,0
2016-03-07T04:03:28.730Z,0
2016-03-07T04:04:28.685Z,0
2016-03-07T04:05:28.689Z,0
2016-03-07T04:06:28.722Z,0
2016-03-07T04:07:28.694Z,0
2016-03-07T04:08:28.680Z,0
2016-03-07T04:09:28.667Z,0
2016-03-07T04:10:28.686Z,0
2016-03-07T04:11:28.736Z,0
2016-03-07T04:12:28.675Z,0
2016-03-07T04:13:28.663Z,0
2016-03-07T04:14:28.635Z,0
2016-03-07T04:15:28.638Z,0
2016-03-07T04:16:28.655Z,0
2016-03-07T04:17:28.626Z,0
2016-03-07T04:18:28.613Z,0
2016-03-07T04:19:28.632Z,0
2016-03-07T04:20:28.604Z,0
2016-03-07T04:21:28.590Z,0
2016-03-07T04:22:28.609Z,0
2016-03-07T04:23:28.595Z,0
2016-03-07T04:24:28.598Z,0
2016-03-07T04:25:28.617Z,0
2016-03-07T04:26:28.573Z,0
2016-03-07T04:27:28.559Z,0
2016-03-07T04:28:28.610Z,0
2016-03-07T04:29:28.565Z,0
2016-03-07T04:30:28.631Z,0
2016-03-07T04:31:28.539Z,0
2016-03-07T04:32:28.558Z,0
2016-03-07T04:33:28.560Z,0
2016-03-07T04:34:28.548Z,0
2016-03-07T04:35:28.482Z,0
2016-03-07T04:36:28.509Z,0
2016-03-07T04:37:28.542Z,0
2016-03-07T04:38:28.531Z,0
2016-03-07T04:39:28.501Z,0
2016-03-07T04:40:28.426Z,0
2016-03-07T04:41:28.510Z,0
2016-03-07T04:42:28.388Z,0
2016-03-07T04:43:28.515Z,0
2016-03-07T04:44:28.254Z,0
2016-03-07T04:45:28.506Z,0
2016-03-07T04:46:28.462Z,0
2016-03-07T04:47:28.479Z,0
2016-03-07T04:48:28.467Z,0
2016-03-07T04:49:28.454Z,0
2016-03-07T04:50:28.473Z,0
2016-03-07T04:51:28.459Z,0
2016-03-07T04:52:28.431Z,0
2016-03-07T04:53:28.434Z,0
2016-03-07T04:54:28.467Z,0
2016-03-07T04:55:28.423Z,0
2016-03-07T04:56:28.410Z,0
2016-03-07T04:57:28.460Z,0
2016-03-07T04:58:28.384Z,0
2016-03-07T04:59:28.403Z,0
2016-03-07T05:00:28.389Z,0
2016-03-07T05:01:28.439Z,0
2016-03-07T05:02:28.395Z,0
2016-03-07T05:03:28.366Z,0
2016-03-07T05:04:28.400Z,0
2016-03-07T05:05:28.371Z,0
2016-03-07T05:06:28.366Z,0
2016-03-07T05:07:28.401Z,0
2016-03-07T05:08:28.357Z,0
2016-03-07T05:09:28.328Z,0
2016-03-07T05:10:28.362Z,0
2016-03-07T05:11:28.333Z,0
2016-03-07T05:12:28.321Z,0
2016-03-07T05:13:28.354Z,0
2016-03-07T05:14:28.326Z,0
2016-03-07T05:15:28.312Z,0
2016-03-07T05:16:28.315Z,0
2016-03-07T05:17:28.349Z,0
2016-03-07T05:18:28.290Z,0
2016-03-07T05:19:28.292Z,0
2016-03-07T05:20:28.279Z,0
2016-03-07T05:21:28.281Z,0
2016-03-07T05:22:28.284Z,0
2016-03-07T05:23:28.319Z,0
2016-03-07T05:24:28.306Z,0
2016-03-07T05:25:28.370Z,0
2016-03-07T05:26:28.373Z,0
2016-03-07T05:27:28.251Z,0
2016-03-07T05:28:28.270Z,0
2016-03-07T05:29:28.256Z,0
2016-03-07T05:30:28.244Z,0
2016-03-07T05:31:28.246Z,0
2016-03-07T05:32:28.234Z,0
2016-03-07T05:33:28.236Z,0
2016-03-07T05:34:28.208Z,0
2016-03-07T05:35:28.226Z,0
2016-03-07T05:36:28.244Z,0
2016-03-07T05:37:28.216Z,0
2016-03-07T05:38:28.188Z,0
2016-03-07T05:39:28.205Z,0
2016-03-07T05:40:28.224Z,0
2016-03-07T05:41:28.196Z,0
2016-03-07T05:42:28.182Z,0
2016-03-07T05:43:28.169Z,0
2016-03-07T05:44:28.218Z,0
2016-03-07T05:45:28.237Z,0
2016-03-07T05:46:28.162Z,0
2016-03-07T05:47:28.165Z,0
2016-03-07T05:48:28.151Z,0
2016-03-07T05:49:28.170Z,0
2016-03-07T05:50:28.156Z,0
2016-03-07T05:51:28.113Z,0
2016-03-07T05:52:28.131Z,0
2016-03-07T05:53:28.134Z,0
2016-03-07T05:54:28.152Z,0
2016-03-07T05:55:28.140Z,5
2016-03-07T05:56:28.111Z,5
2016-03-07T05:57:28.129Z,5
2016-03-07T05:58:28.116Z,5
2016-03-07T05:59:28.197Z,5
2016-03-07T06:00:28.122Z,5
2016-03-07T06:01:28.109Z,5
2016-03-07T06:02:28.095Z,5
2016-03-07T06:03:28.067Z,5
2016-03-07T06:04:28.069Z,10
2016-03-07T06:05:28.072Z,10
2016-03-07T06:06:28.075Z,10
2016-03-07T06:07:28.108Z,10
2016-03-07T06:08:28.127Z,10
2016-03-07T06:09:28.068Z,15
2016-03-07T06:10:28.086Z,15
2016-03-07T06:11:28.073Z,15
2016-03-07T06:12:28.029Z,15
2016-03-07T06:13:28.031Z,20
2016-03-07T06:14:27.940Z,20
2016-03-07T06:15:28.037Z,20
2016-03-07T06:16:28.040Z,20
2016-03-07T06:17:28.057Z,25
2016-03-07T06:18:28.013Z,25
2016-03-07T06:19:28.015Z,25
2016-03-07T06:20:28.035Z,25
2016-03-07T06:21:28.021Z,30
2016-03-07T06:22:27.993Z,30
2016-03-07T06:23:27.995Z,30
2016-03-07T06:24:27.999Z,35
2016-03-07T06:25:27.986Z,35
2016-03-07T06:26:27.989Z,35
2016-03-07T06:27:27.991Z,40
2016-03-07T06:28:27.806Z,40
2016-03-07T06:29:27.887Z,45
2016-03-07T06:30:27.968Z,45
2016-03-07T06:31:28.002Z,45
2016-03-07T06:32:27.942Z,45
2016-03-07T06:33:27.960Z,45
2016-03-07T06:34:27.994Z,50
2016-03-07T06:35:28.028Z,50
2016-03-07T06:36:27.968Z,55
2016-03-07T06:37:27.939Z,55
2016-03-07T06:38:27.911Z,55
2016-03-07T06:39:27.930Z,60
2016-03-07T06:40:27.932Z,60
2016-03-07T06:41:27.904Z,60
2016-03-07T06:42:27.921Z,65
2016-03-07T06:43:27.910Z,65
2016-03-07T06:44:27.912Z,70
2016-03-07T06:45:27.899Z,75
2016-03-07T06:46:27.901Z,75
2016-03-07T06:47:27.904Z,75
2016-03-07T06:48:27.156Z,80
2016-03-07T06:49:27.879Z,80
2016-03-07T06:50:27.865Z,75
2016-03-07T06:51:27.712Z,80
2016-03-07T06:52:27.902Z,80
2016-03-07T06:53:27.858Z,85
2016-03-07T06:54:27.860Z,85
2016-03-07T06:55:27.879Z,85
2016-03-07T06:56:27.850Z,85
2016-03-07T06:57:27.848Z,85
2016-03-07T06:58:27.836Z,90
2016-03-07T06:59:27.793Z,90
2016-03-07T07:00:27.765Z,90
2016-03-07T07:01:27.753Z,90
2016-03-07T07:02:27.729Z,90
2016-03-07T07:03:27.570Z,95
2016-03-07T07:04:27.770Z,95
2016-03-07T07:05:27.721Z,95
2016-03-07T07:06:27.733Z,95
2016-03-07T07:07:27.716Z,100
2016-03-07T07:08:27.530Z,100
2016-03-07T07:09:27.703Z,100
2016-03-07T07:10:27.704Z,105
2016-03-07T07:11:27.673Z,105
2016-03-07T07:12:27.659Z,105
2016-03-07T07:13:27.661Z,110
2016-03-07T07:14:27.678Z,110
2016-03-07T07:15:27.666Z,110
2016-03-07T07:16:27.668Z,110
2016-03-07T07:17:27.659Z,110
2016-03-07T07:18:27.661Z,115
2016-03-07T07:19:27.648Z,120
2016-03-07T07:20:27.495Z,120
2016-03-07T07:21:27.622Z,115
2016-03-07T07:22:27.624Z,120
2016-03-07T07:23:27.626Z,120
2016-03-07T07:24:27.630Z,115
2016-03-07T07:25:27.601Z,120
2016-03-07T07:26:27.604Z,125
2016-03-07T07:27:27.606Z,125
2016-03-07T07:28:27.640Z,120
2016-03-07T07:29:27.611Z,115
2016-03-07T07:30:27.614Z,110
2016-03-07T07:31:27.601Z,110
2016-03-07T07:32:27.448Z,110
2016-03-07T07:33:27.592Z,115
2016-03-07T07:34:27.594Z,115
2016-03-07T07:35:27.581Z,115
2016-03-07T07:36:27.584Z,120
2016-03-07T07:37:27.602Z,145
2016-03-07T07:38:27.605Z,155
2016-03-07T07:39:27.561Z,150
2016-03-07T07:40:27.641Z,160
2016-03-07T07:41:27.581Z,160
2016-03-07T07:42:27.568Z,155
2016-03-07T07:43:27.587Z,155
2016-03-07T07:44:27.558Z,150
2016-03-07T07:45:27.561Z,155
2016-03-07T07:46:27.594Z,155
2016-03-07T07:47:27.598Z,155
2016-03-07T07:48:27.569Z,155
2016-03-07T07:49:27.572Z,160
2016-03-07T07:50:27.605Z,165
2016-03-07T07:51:27.562Z,170
2016-03-07T07:52:27.564Z,175
2016-03-07T07:53:27.598Z,180
2016-03-07T07:54:27.569Z,180
2016-03-07T07:55:27.556Z,185
2016-03-07T07:56:27.606Z,180
2016-03-07T07:57:27.578Z,180
2016-03-07T07:58:27.581Z,185
2016-03-07T07:59:27.598Z,185
2016-03-07T08:00:27.586Z,190
2016-03-07T08:01:27.573Z,190
2016-03-07T08:02:27.576Z,185
2016-03-07T08:03:27.609Z,185
2016-03-07T08:04:27.643Z,190
2016-03-07T08:05:27.645Z,190
2016-03-07T08:06:27.617Z,190
2016-03-07T08:07:27.635Z,190
2016-03-07T08:08:27.622Z,190
2016-03-07T08:09:27.625Z,195
2016-03-07T08:10:27.628Z,195
2016-03-07T08:11:27.974Z,195
2016-03-07T08:12:27.634Z,195
2016-03-07T08:13:27.667Z,195
2016-03-07T08:14:27.639Z,195
2016-03-07T08:15:27.798Z,195
2016-03-07T08:16:27.660Z,195
2016-03-07T08:17:27.663Z,195
2016-03-07T08:18:27.649Z,190
2016-03-07T08:19:27.715Z,185
2016-03-07T08:20:27.686Z,190
2016-03-07T08:21:27.704Z,190
2016-03-07T08:22:27.723Z,195
2016-03-07T08:23:27.709Z,195
2016-03-07T08:24:27.712Z,195
2016-03-07T08:25:27.715Z,195
2016-03-07T08:26:27.734Z,180
2016-03-07T08:27:27.721Z,175
2016-03-07T08:28:27.724Z,170
2016-03-07T08:29:27.757Z,170
2016-03-07T08:30:27.760Z,175
2016-03-07T08:31:27.747Z,180
2016-03-07T08:32:27.750Z,175
2016-03-07T08:33:27.753Z,175
2016-03-07T08:34:27.786Z,180
2016-03-07T08:35:27.758Z,185
2016-03-07T08:36:27.792Z,190
2016-03-07T08:37:27.794Z,200
2016-03-07T08:38:27.781Z,205
2016-03-07T08:39:27.800Z,220
2016-03-07T08:40:27.630Z,230
2016-03-07T08:41:27.759Z,235
2016-03-07T08:42:27.777Z,235
2016-03-07T08:43:27.780Z,235
2016-03-07T08:44:27.782Z,245
2016-03-07T08:45:27.785Z,250
2016-03-07T08:46:27.772Z,250
2016-03-07T08:47:27.775Z,255
2016-03-07T08:48:27.793Z,245
2016-03-07T08:49:27.795Z,240
2016-03-07T08:50:27.611Z,265
2016-03-07T08:51:27.801Z,285
2016-03-07T08:52:27.804Z,290
2016-03-07T08:53:27.790Z,290
2016-03-07T08:54:27.777Z,285
2016-03-07T08:55:27.812Z,285
2016-03-07T08:56:27.782Z,285
2016-03-07T08:57:27.817Z,285
2016-03-07T08:58:27.757Z,295
2016-03-07T08:59:27.791Z,290
2016-03-07T09:00:27.778Z,290
2016-03-07T09:01:27.828Z,290
2016-03-07T09:02:27.783Z,280
2016-03-07T09:03:27.787Z,275
2016-03-07T09:04:28.398Z,270
2016-03-07T09:05:27.776Z,260
2016-03-07T09:06:27.795Z,260
2016-03-07T09:07:27.781Z,245
2016-03-07T09:08:27.784Z,235
2016-03-07T09:09:27.786Z,210
2016-03-07T09:10:27.805Z,245
2016-03-07T09:11:27.792Z,250
2016-03-07T09:12:28.030Z,245
2016-03-07T09:13:27.797Z,255
2016-03-07T09:14:27.785Z,210
2016-03-07T09:15:27.803Z,240
2016-03-07T09:16:27.790Z,205
2016-03-07T09:17:27.793Z,195
2016-03-07T09:18:27.655Z,185
2016-03-07T09:19:27.658Z,180
2016-03-07T09:20:28.472Z,195
2016-03-07T09:21:27.788Z,200
2016-03-07T09:22:27.807Z,195
2016-03-07T09:23:27.810Z,195
2016-03-07T09:24:27.795Z,195
2016-03-07T09:25:27.798Z,195
2016-03-07T09:26:27.801Z,190
2016-03-07T09:27:27.788Z,190
2016-03-07T09:28:27.806Z,190
2016-03-07T09:29:27.825Z,190
2016-03-07T09:30:27.828Z,190
2016-03-07T09:31:27.799Z,195
2016-03-07T09:32:27.801Z,195
2016-03-07T09:33:27.804Z,195
2016-03-07T09:34:27.807Z,200
2016-03-07T09:35:27.795Z,200
2016-03-07T09:36:27.812Z,205
2016-03-07T09:37:27.814Z,200
2016-03-07T09:38:27.817Z,205
2016-03-07T09:39:27.805Z,205
2016-03-07T09:40:27.823Z,200
2016-03-07T09:41:27.795Z,200
2016-03-07T09:42:27.798Z,200
2016-03-07T09:43:27.847Z,200
2016-03-07T09:44:27.787Z,195
2016-03-07T09:45:27.806Z,195
2016-03-07T09:46:27.792Z,190
2016-03-07T09:47:27.795Z,185
2016-03-07T09:48:27.797Z,180
2016-03-07T09:49:27.832Z,185
2016-03-07T09:50:27.787Z,175
2016-03-07T09:51:27.821Z,175
2016-03-07T09:52:27.793Z,170
2016-03-07T09:53:27.811Z,165
2016-03-07T09:54:27.783Z,165
2016-03-07T09:55:27.801Z,160
2016-03-07T09:56:27.788Z,160
2016-03-07T09:57:27.791Z,155
2016-03-07T09:58:27.794Z,150
2016-03-07T09:59:27.796Z,155
2016-03-07T10:00:27.768Z,155
2016-03-07T10:01:27.787Z,155
2016-03-07T10:02:27.773Z,150
2016-03-07T10:03:27.791Z,150
2016-03-07T10:04:27.794Z,150
2016-03-07T10:05:27.812Z,150
2016-03-07T10:06:27.801Z,150
2016-03-07T10:07:27.787Z,150
2016-03-07T10:08:27.790Z,150
2016-03-07T10:09:27.777Z,150
2016-03-07T10:10:27.795Z,160
2016-03-07T10:11:27.767Z,160
2016-03-07T10:12:27.801Z,160
2016-03-07T10:13:27.772Z,165
2016-03-07T10:14:27.978Z,165
2016-03-07T10:15:27.778Z,165
2016-03-07T10:16:27.781Z,165
2016-03-07T10:17:27.784Z,170
2016-03-07T10:18:27.771Z,170
2016-03-07T10:19:27.758Z,170
2016-03-07T10:20:27.777Z,170
2016-03-07T10:21:27.763Z,170
2016-03-07T10:22:27.766Z,170
2016-03-07T10:23:27.784Z,170
2016-03-07T10:24:27.616Z,170
2016-03-07T10:25:27.774Z,170
2016-03-07T10:26:27.746Z,170
2016-03-07T10:27:27.748Z,170
2016-03-07T10:28:27.798Z,175
2016-03-07T10:29:27.739Z,185
2016-03-07T10:30:27.617Z,190
2016-03-07T10:31:27.587Z,205
2016-03-07T10:32:27.762Z,205
2016-03-07T10:33:27.734Z,205
2016-03-07T10:34:27.767Z,205
2016-03-07T10:35:27.739Z,210
2016-03-07T10:36:27.772Z,220
2016-03-07T10:37:27.728Z,215
2016-03-07T10:38:27.778Z,215
2016-03-07T10:39:27.734Z,210
2016-03-07T10:40:27.814Z,210
2016-03-07T10:41:27.724Z,215
2016-03-07T10:42:27.758Z,210
2016-03-07T10:43:27.713Z,205
2016-03-07T10:44:27.732Z,200
2016-03-07T10:45:27.750Z,190
2016-03-07T10:46:27.722Z,185
2016-03-07T10:47:27.740Z,180
2016-03-07T10:48:27.711Z,170
2016-03-07T10:49:27.730Z,160
2016-03-07T10:50:27.716Z,155
2016-03-07T10:51:27.719Z,145
2016-03-07T10:52:27.707Z,145
2016-03-07T10:53:27.584Z,145
2016-03-07T10:54:27.696Z,145
2016-03-07T10:55:27.729Z,145
2016-03-07T10:56:27.718Z,150
2016-03-07T10:57:27.829Z,150
2016-03-07T10:58:27.707Z,155
2016-03-07T10:59:27.725Z,160
2016-03-07T11:00:28.347Z,165
2016-03-07T11:01:27.567Z,170
2016-03-07T11:02:28.325Z,170
2016-03-07T11:03:31.759Z,175
2016-03-07T11:04:27.746Z,180
2016-03-07T11:05:27.702Z,180
2016-03-07T11:06:27.688Z,185
2016-03-07T11:07:27.785Z,185
2016-03-07T11:08:27.710Z,185
2016-03-07T11:09:27.744Z,190
2016-03-07T11:10:27.700Z,190
2016-03-07T11:11:27.702Z,190
2016-03-07T11:12:27.690Z,190
2016-03-07T11:13:27.677Z,190
2016-03-07T11:14:27.695Z,185
2016-03-07T11:15:27.759Z,190
2016-03-07T11:16:27.684Z,190
2016-03-07T11:17:27.703Z,195
2016-03-07T11:18:27.674Z,195
2016-03-07T11:19:27.801Z,205
2016-03-07T11:20:27.679Z,210
2016-03-07T11:21:27.682Z,215
2016-03-07T11:22:27.684Z,220
2016-03-07T11:23:27.673Z,240
2016-03-07T11:24:26.925Z,240
2016-03-07T11:25:27.661Z,250
2016-03-07T11:26:27.680Z,245
2016-03-07T11:27:27.667Z,210
2016-03-07T11:28:27.653Z,215
2016-03-07T11:29:28.141Z,195
2016-03-07T11:30:27.675Z,195
2016-03-07T11:31:27.647Z,190
2016-03-07T11:32:27.649Z,185
2016-03-07T11:33:27.652Z,180
2016-03-07T11:34:27.670Z,180
2016-03-07T11:35:27.641Z,175
2016-03-07T11:36:27.707Z,175
2016-03-07T11:37:27.632Z,175
2016-03-07T11:38:27.635Z,195
2016-03-07T11:39:30.668Z,205
2016-03-07T11:40:27.639Z,225
2016-03-07T11:41:27.658Z,225
2016-03-07T11:42:27.645Z,225
2016-03-07T11:43:26.898Z,225
2016-03-07T11:44:27.900Z,225
2016-03-07T11:45:27.700Z,225
2016-03-07T11:46:27.656Z,225
2016-03-07T11:47:27.642Z,220
2016-03-07T11:48:27.630Z,225
2016-03-07T11:49:27.648Z,220
2016-03-07T11:50:27.728Z,225
2016-03-07T11:51:27.654Z,220
2016-03-07T11:52:27.626Z,215
2016-03-07T11:53:27.659Z,195
2016-03-07T11:54:27.630Z,185
2016-03-07T11:55:27.695Z,175
2016-03-07T11:56:27.636Z,185
2016-03-07T11:57:27.638Z,190
2016-03-07T11:58:27.641Z,180
2016-03-07T11:59:27.628Z,180
2016-03-07T12:00:27.522Z,165
2016-03-07T12:01:27.634Z,155
2016-03-07T12:02:27.620Z,155
2016-03-07T12:03:27.639Z,155
2016-03-07T12:04:27.610Z,155
2016-03-07T12:05:27.644Z,160
2016-03-07T12:06:27.666Z,155
2016-03-07T12:07:27.494Z,160
2016-03-07T12:08:27.621Z,175
2016-03-07T12:09:27.607Z,175
2016-03-07T12:10:27.705Z,185
2016-03-07T12:11:27.629Z,195
2016-03-07T12:12:27.615Z,200
2016-03-07T12:13:27.915Z,210
2016-03-07T12:14:27.621Z,215
2016-03-07T12:15:27.654Z,225
2016-03-07T12:16:27.595Z,230
2016-03-07T12:17:27.599Z,230
2016-03-07T12:18:27.632Z,230
2016-03-07T12:19:27.603Z,225
2016-03-07T12:20:27.668Z,220
2016-03-07T12:21:27.625Z,215
2016-03-07T12:22:27.596Z,210
2016-03-07T12:23:27.614Z,205
2016-03-07T12:24:27.601Z,200
2016-03-07T12:25:27.620Z,200
2016-03-07T12:26:27.606Z,205
2016-03-07T12:27:27.625Z,210
2016-03-07T12:28:27.597Z,220
2016-03-07T12:29:27.600Z,225
2016-03-07T12:30:27.509Z,235
2016-03-07T12:31:27.605Z,245
2016-03-07T12:32:27.592Z,255
2016-03-07T12:33:27.594Z,255
2016-03-07T12:34:27.613Z,260
2016-03-07T12:35:27.616Z,270
2016-03-07T12:36:27.602Z,275
2016-03-07T12:37:27.605Z,295
2016-03-07T12:38:27.608Z,300
2016-03-07T12:39:27.594Z,315
2016-03-07T12:40:27.597Z,330
2016-03-07T12:41:27.600Z,335
2016-03-07T12:42:27.619Z,340
2016-03-07T12:43:27.637Z,345
2016-03-07T12:44:27.577Z,345
2016-03-07T12:45:27.580Z,345
2016-03-07T12:46:27.613Z,345
2016-03-07T12:47:27.601Z,340
2016-03-07T12:48:27.572Z,335
2016-03-07T12:49:27.669Z,325
2016-03-07T12:50:27.578Z,315
2016-03-07T12:51:27.595Z,305
2016-03-07T12:52:27.568Z,300
2016-03-07T12:53:27.586Z,295
2016-03-07T12:54:27.572Z,285
2016-03-07T12:55:27.576Z,285
2016-03-07T12:56:27.594Z,280
2016-03-07T12:57:27.565Z,275
2016-03-07T12:58:27.583Z,275
2016-03-07T12:59:27.555Z,275
2016-03-07T13:00:27.714Z,270
2016-03-07T13:01:27.591Z,260
2016-03-07T13:02:27.563Z,260
2016-03-07T13:03:27.566Z,250
2016-03-07T13:04:27.427Z,230
2016-03-07T13:05:27.571Z,250
2016-03-07T13:06:27.558Z,245
2016-03-07T13:07:27.560Z,240
2016-03-07T13:08:27.594Z,240
2016-03-07T13:09:27.566Z,235
2016-03-07T13:10:27.584Z,235
2016-03-07T13:11:27.587Z,240
2016-03-07T13:12:27.590Z,240
2016-03-07T13:13:27.561Z,235
2016-03-07T13:14:27.595Z,235
2016-03-07T13:15:27.410Z,230
2016-03-07T13:16:27.601Z,225
2016-03-07T13:17:27.618Z,225
2016-03-07T13:18:27.606Z,220
2016-03-07T13:19:27.562Z,220
2016-03-07T13:20:27.612Z,220
2016-03-07T13:21:27.567Z,215
2016-03-07T13:22:27.570Z,215
2016-03-07T13:23:27.572Z,210
2016-03-07T13:24:27.591Z,210
2016-03-07T13:25:27.593Z,210
2016-03-07T13:26:27.595Z,205
2016-03-07T13:27:27.567Z,205
2016-03-07T13:28:27.617Z,205
2016-03-07T13:29:27.573Z,200
2016-03-07T13:30:27.575Z,200
2016-03-07T13:31:27.579Z,200
2016-03-07T13:32:27.581Z,200
2016-03-07T13:33:27.583Z,195
2016-03-07T13:34:27.586Z,200
2016-03-07T13:35:27.589Z,195
2016-03-07T13:36:27.577Z,195
2016-03-07T13:37:27.611Z,200
2016-03-07T13:38:27.566Z,190
2016-03-07T13:39:27.585Z,190
2016-03-07T13:40:27.587Z,190
2016-03-07T13:41:27.574Z,185
2016-03-07T13:42:27.577Z,190
2016-03-07T13:43:27.564Z,185
2016-03-07T13:44:27.567Z,170
2016-03-07T13:45:27.585Z,170
2016-03-07T13:46:27.415Z,170
2016-03-07T13:47:27.559Z,165
2016-03-07T13:48:27.593Z,170
2016-03-07T13:49:27.580Z,175
2016-03-07T13:50:27.615Z,170
2016-03-07T13:51:27.585Z,175
2016-03-07T13:52:27.572Z,185
2016-03-07T13:53:27.591Z,185
2016-03-07T13:54:27.578Z,185
2016-03-07T13:55:27.596Z,180
2016-03-07T13:56:27.567Z,175
2016-03-07T13:57:27.554Z,175
2016-03-07T13:58:27.604Z,165
2016-03-07T13:59:27.559Z,160
2016-03-07T14:00:27.578Z,160
2016-03-07T14:01:27.549Z,160
2016-03-07T14:02:27.583Z,160
2016-03-07T14:03:27.555Z,170
2016-03-07T14:04:27.573Z,165
2016-03-07T14:05:27.544Z,165
2016-03-07T14:06:27.579Z,165
2016-03-07T14:07:27.550Z,160
2016-03-07T14:08:27.569Z,160
2016-03-07T14:09:27.555Z,155
2016-03-07T14:10:27.558Z,155
2016-03-07T14:11:27.405Z,155
2016-03-07T14:12:27.548Z,160
2016-03-07T14:13:27.644Z,160